Etters, Pennsylvania
Current Conditions -  °F | °C
As of 11:56 AM on Thursday 30 Oct 2014 (Local Time) from KMDT Reporting Station
Few Clouds Few Clouds  
Wind Chill: 54°   Ceiling: Unl
Heat Index: 54°   Visibility: 10mi
Dew Point: 38°   Wind: 9mph
Humidity: 55%   Direction: 350°N
Pressure: 30.05"   Gusts: NA
Location:  40.15°N, 76.79°W
Report Text: KMDT 301556Z 35008KT 10SM FEW034 12/03 A3005 RMK AO2 SLP176 T01220033
Loading
Personal Weather Stations






























Interactive Weather Map
Tropical Storm Tracking
New forecast layout! Learn more

10-Day Weather Forecast

Advertisements
Track Severe Weather on mobile